NORTHEAST SUFFOLK  -  Winter Weather Advisory Winter Weather Advisory        NORTHERN NASSAU  -  Winter Weather Advisory Winter Weather Advisory        NORTHWEST SUFFOLK  -  Winter Weather Advisory Winter Weather Advisory        SOUTHEAST SUFFOLK  -  Winter Weather Advisory Winter Weather Advisory        SOUTHERN NASSAU  -  Winter Weather Advisory Winter Weather Advisory        SOUTHWEST SUFFOLK  -  Winter Weather Advisory Winter Weather Advisory      

Active alerts

Northern Nassau
  Details for Northern Nassau Winter Weather Advisory
Southern Nassau
  Details for Southern Nassau Winter Weather Advisory
Northwest Suffolk
  Details for Northwest Suffolk Winter Weather Advisory
Southwest Suffolk
  Details for Southwest Suffolk Winter Weather Advisory
Northeast Suffolk
  Details for Northeast Suffolk Winter Weather Advisory
Southeast Suffolk
  Details for Southeast Suffolk Winter Weather Advisory


WXM80 ListenWXM80 Stop

You find our weather info also at:

UK Metoffice

WeatherCloud

Weather Underground

Northeastern Weather Network

AWEKAS

Citizen Weather Observer Program (CWOP)

HAMweather, WeatherForYou, PWS Weather


Weather Underground History page Text

Daily Summary for July 26, 2017 Units:  English    Metric   Both
« Previous Day
Next Day »
Daily Weekly Monthly Yearly Custom
  High: Low: Average:
Temperature: 80.8 °F 62.4 °F 70.4 °F
Dew Point: 64.1 °F 58.2 °F 60.5 °F
Humidity: 92 % 51 % 72 %
Wind Speed: 5.8 mph 0.0 mph 1.1 mph
Wind Gust: 9.2 mph - -
Wind:- - East
Pressure: 30.22 in 30.09 in -
Precipitation: 0.01 in    
Historical Graphs
 
 
Tabular Data for July 26, 2017
Time Temperature Dew Point Pressure Wind Wind Speed Wind Gust Humidity Rainfall Rate (Hourly)
00:03 65.5 °F 60.5 °F 30.17 in ENE 2.3 mph 8.1 mph 84 % 0.00 in
00:08 65.5 °F 60.2 °F 30.17 in NE 1.5 mph 2.3 mph 83 % 0.00 in
00:13 65.6 °F 60.0 °F 30.17 in ENE 0.9 mph 3.5 mph 82 % 0.00 in
00:18 65.6 °F 60.0 °F 30.17 in ENE 2.8 mph 8.1 mph 82 % 0.00 in
00:23 65.7 °F 59.7 °F 30.18 in ENE 2.9 mph 7.0 mph 81 % 0.00 in
00:28 65.8 °F 59.5 °F 30.17 in ENE 3.1 mph 4.6 mph 80 % 0.00 in
00:33 65.8 °F 59.8 °F 30.17 in NE 0.6 mph 2.3 mph 81 % 0.00 in
00:38 65.9 °F 59.6 °F 30.17 in ENE 2.1 mph 4.6 mph 80 % 0.00 in
00:43 65.9 °F 59.6 °F 30.17 in NE 1.6 mph 3.5 mph 80 % 0.00 in
00:48 65.9 °F 59.6 °F 30.17 in NE 0.3 mph 3.5 mph 80 % 0.00 in
00:53 66.0 °F 60.0 °F 30.17 in ENE 2.1 mph 3.5 mph 81 % 0.00 in
00:58 66.0 °F 60.0 °F 30.17 in ENE 0.9 mph 2.3 mph 81 % 0.00 in
01:03 66.1 °F 59.7 °F 30.18 in Calm     80 % 0.00 in
01:08 66.0 °F 59.7 °F 30.18 in ENE 0.5 mph 2.0 mph 80 % 0.00 in
01:13 66.0 °F 59.7 °F 30.18 in Calm     80 % 0.00 in
01:18 65.9 °F 59.6 °F 30.18 in Calm   1.2 mph 80 % 0.00 in
01:23 65.9 °F 59.6 °F 30.18 in Calm     80 % 0.00 in
01:28 65.8 °F 59.5 °F 30.18 in Calm     80 % 0.00 in
01:33 65.8 °F 59.5 °F 30.19 in Calm     80 % 0.00 in
01:38 65.6 °F 59.6 °F 30.18 in Calm     81 % 0.00 in
01:43 65.5 °F 59.5 °F 30.19 in Calm     81 % 0.00 in
01:48 65.3 °F 59.3 °F 30.18 in Calm     81 % 0.00 in
01:53 65.2 °F 59.6 °F 30.19 in Calm   1.2 mph 82 % 0.00 in
01:58 65.0 °F 59.4 °F 30.19 in NE 0.1 mph 2.0 mph 82 % 0.00 in
02:03 64.9 °F 59.6 °F 30.18 in Calm   1.2 mph 83 % 0.00 in
02:09 64.7 °F 59.4 °F 30.18 in ENE 0.5 mph 2.0 mph 83 % 0.00 in
02:14 64.5 °F 59.6 °F 30.18 in Calm   2.3 mph 84 % 0.00 in
02:19 64.4 °F 59.5 °F 30.18 in North 1.0 mph 4.0 mph 84 % 0.00 in
02:24 64.3 °F 59.4 °F 30.18 in North 0.1 mph 1.2 mph 84 % 0.00 in
02:29 64.2 °F 59.6 °F 30.18 in NNE 0.4 mph 2.3 mph 85 % 0.00 in
02:34 64.1 °F 59.5 °F 30.18 in NNE 0.1 mph 3.5 mph 85 % 0.00 in
02:39 64.0 °F 59.4 °F 30.18 in NNE 1.7 mph 3.5 mph 85 % 0.00 in
02:44 64.0 °F 59.7 °F 30.18 in NE 0.6 mph 2.3 mph 86 % 0.00 in
02:49 63.9 °F 59.6 °F 30.18 in NNE 0.6 mph 2.3 mph 86 % 0.00 in
02:54 63.8 °F 59.9 °F 30.18 in ENE 0.3 mph 4.6 mph 87 % 0.00 in
02:59 63.8 °F 59.9 °F 30.18 in NNE 1.3 mph 3.5 mph 87 % 0.00 in
03:04 63.7 °F 59.8 °F 30.17 in NE 0.6 mph 3.5 mph 87 % 0.00 in
03:09 63.6 °F 59.7 °F 30.17 in NNE 1.9 mph 3.5 mph 87 % 0.00 in
03:15 63.6 °F 59.7 °F 30.17 in NNE 1.2 mph 3.5 mph 87 % 0.00 in
03:20 63.5 °F 59.9 °F 30.17 in NNE 1.5 mph 3.5 mph 88 % 0.00 in
03:25 63.5 °F 59.6 °F 30.17 in NNE 2.7 mph 4.0 mph 87 % 0.00 in
03:30 63.5 °F 59.6 °F 30.17 in NNE 1.6 mph 3.5 mph 87 % 0.00 in
03:35 63.5 °F 59.9 °F 30.17 in NE 4.1 mph 6.9 mph 88 % 0.00 in
03:40 63.5 °F 59.9 °F 30.17 in ENE 0.9 mph 3.5 mph 88 % 0.00 in
03:45 63.5 °F 59.9 °F 30.16 in NE 1.3 mph 3.5 mph 88 % 0.00 in
03:50 63.5 °F 59.9 °F 30.17 in North 2.0 mph 3.5 mph 88 % 0.00 in
03:55 63.5 °F 59.9 °F 30.17 in NNE 1.6 mph 2.3 mph 88 % 0.00 in
04:00 63.5 °F 59.9 °F 30.17 in NE 0.1 mph 1.2 mph 88 % 0.00 in
04:05 63.5 °F 59.9 °F 30.16 in ENE 0.9 mph 3.5 mph 88 % 0.00 in
04:10 63.5 °F 59.9 °F 30.16 in NE 1.8 mph 4.0 mph 88 % 0.00 in
04:15 63.4 °F 59.8 °F 30.16 in NNE 2.0 mph 3.5 mph 88 % 0.00 in
04:20 63.4 °F 59.8 °F 30.16 in NE 2.4 mph 5.0 mph 88 % 0.00 in
04:26 63.4 °F 59.8 °F 30.16 in NE 2.0 mph 5.0 mph 88 % 0.00 in
04:31 63.4 °F 59.8 °F 30.16 in NE 2.0 mph 7.0 mph 88 % 0.00 in
04:36 63.3 °F 59.4 °F 30.16 in NE 1.0 mph 4.0 mph 87 % 0.00 in
04:41 63.3 °F 59.7 °F 30.16 in NE 1.0 mph 5.0 mph 88 % 0.00 in
04:46 63.3 °F 59.4 °F 30.16 in NE 1.0 mph 4.0 mph 87 % 0.00 in
04:51 63.3 °F 59.4 °F 30.17 in NE 2.0 mph 5.0 mph 87 % 0.00 in
04:56 63.2 °F 59.3 °F 30.16 in NE 1.0 mph 4.0 mph 87 % 0.00 in
05:01 63.3 °F 59.4 °F 30.17 in NE 0.5 mph 3.5 mph 87 % 0.00 in
05:06 63.2 °F 59.3 °F 30.17 in NNE 0.4 mph 3.5 mph 87 % 0.00 in
05:11 63.2 °F 59.3 °F 30.17 in NNE 0.2 mph 2.3 mph 87 % 0.00 in
05:16 63.1 °F 59.2 °F 30.17 in Calm   1.2 mph 87 % 0.00 in
05:21 63.1 °F 59.2 °F 30.17 in NNE 0.1 mph 2.0 mph 87 % 0.00 in
05:26 63.0 °F 59.1 °F 30.18 in Calm   1.2 mph 87 % 0.00 in
05:27 63.0 °F 59.1 °F 30.18 in Calm   1.2 mph 87 % 0.00 in
05:32 62.9 °F 59.0 °F 30.18 in Calm     87 % 0.00 in
05:37 62.9 °F 59.0 °F 30.18 in Calm     87 % 0.00 in
05:42 62.8 °F 58.9 °F 30.18 in Calm     87 % 0.00 in
05:47 62.7 °F 58.8 °F 30.19 in Calm     87 % 0.00 in
05:51 62.6 °F 58.7 °F 30.18 in NW 0.3 mph 1.2 mph 87 % 0.00 in
05:56 62.5 °F 58.9 °F 30.18 in NW 0.5 mph 2.3 mph 88 % 0.00 in
06:01 62.5 °F 58.9 °F 30.19 in NW 0.8 mph 3.5 mph 88 % 0.00 in
06:06 62.4 °F 59.1 °F 30.19 in Calm   3.5 mph 89 % 0.00 in
06:11 62.4 °F 59.1 °F 30.19 in North 0.7 mph 2.3 mph 89 % 0.00 in
06:16 62.4 °F 59.4 °F 30.19 in North 2.3 mph 5.0 mph 90 % 0.00 in
06:21 62.4 °F 59.4 °F 30.19 in North 0.4 mph 2.3 mph 90 % 0.00 in
06:26 62.5 °F 59.8 °F 30.19 in Calm     91 % 0.00 in
06:31 62.6 °F 59.9 °F 30.20 in NNE 1.1 mph 3.5 mph 91 % 0.00 in
06:36 62.8 °F 60.1 °F 30.19 in NNW 1.3 mph 3.0 mph 91 % 0.00 in
06:41 63.1 °F 60.7 °F 30.20 in North 1.8 mph 3.5 mph 92 % 0.00 in
06:46 63.4 °F 60.7 °F 30.19 in North 1.2 mph 2.3 mph 91 % 0.00 in
06:51 63.7 °F 61.0 °F 30.19 in NNE 3.6 mph 4.0 mph 91 % 0.00 in
06:56 64.0 °F 61.0 °F 30.19 in NNW 1.6 mph 3.5 mph 90 % 0.00 in
06:59 64.1 °F 61.1 °F 30.19 in NNW 0.8 mph 3.5 mph 90 % 0.00 in
07:04 64.4 °F 61.4 °F 30.20 in North 1.7 mph 3.5 mph 90 % 0.00 in
07:09 64.8 °F 61.8 °F 30.20 in NNE 2.9 mph 6.0 mph 90 % 0.00 in
07:14 65.2 °F 61.9 °F 30.20 in NNE 2.1 mph 3.5 mph 89 % 0.00 in
07:20 65.7 °F 62.4 °F 30.20 in NE 2.3 mph 3.5 mph 89 % 0.00 in
07:25 66.1 °F 62.8 °F 30.20 in North 1.7 mph 2.3 mph 89 % 0.00 in
07:30 66.4 °F 62.4 °F 30.20 in NNE 3.2 mph 5.8 mph 87 % 0.00 in
07:35 66.6 °F 62.3 °F 30.20 in North 3.3 mph 5.8 mph 86 % 0.00 in
07:40 66.8 °F 62.1 °F 30.20 in NE 1.3 mph 3.5 mph 85 % 0.00 in
07:45 66.9 °F 62.6 °F 30.20 in North 1.1 mph 3.5 mph 86 % 0.00 in
07:50 67.1 °F 63.1 °F 30.20 in NNE 2.6 mph 3.5 mph 87 % 0.00 in
07:55 67.1 °F 62.8 °F 30.21 in NNW 1.0 mph 2.3 mph 86 % 0.00 in
08:00 67.1 °F 62.4 °F 30.21 in NE 1.4 mph 3.5 mph 85 % 0.00 in
08:05 67.2 °F 62.9 °F 30.21 in NE 1.7 mph 2.3 mph 86 % 0.00 in
08:10 67.1 °F 62.4 °F 30.21 in North 2.5 mph 5.8 mph 85 % 0.00 in
08:15 67.1 °F 62.1 °F 30.22 in NNE 1.1 mph 3.5 mph 84 % 0.00 in
08:20 67.1 °F 62.4 °F 30.22 in NE 0.5 mph 2.3 mph 85 % 0.00 in
08:25 67.1 °F 62.1 °F 30.22 in NNE 3.0 mph 3.5 mph 84 % 0.00 in
08:30 67.1 °F 61.8 °F 30.22 in NNE 2.8 mph 4.6 mph 83 % 0.00 in
08:35 67.2 °F 61.9 °F 30.22 in North 1.1 mph 2.3 mph 83 % 0.00 in
08:36 67.2 °F 61.9 °F 30.22 in NNE 1.0 mph 3.0 mph 83 % 0.00 in
08:41 67.2 °F 61.9 °F 30.22 in NNE 1.0 mph 2.0 mph 83 % 0.00 in
08:46 67.3 °F 62.0 °F 30.22 in NNE 2.0 mph 5.0 mph 83 % 0.00 in
08:51 67.2 °F 61.5 °F 30.22 in North 2.0 mph 4.0 mph 82 % 0.00 in
08:56 67.2 °F 61.9 °F 30.22 in North 1.0 mph 3.0 mph 83 % 0.00 in
09:01 67.2 °F 61.9 °F 30.22 in North 1.3 mph 3.5 mph 83 % 0.01 in
09:06 67.3 °F 62.0 °F 30.22 in NNE 0.2 mph 3.5 mph 83 % 0.01 in
09:11 67.4 °F 61.7 °F 30.22 in NNE 1.6 mph 3.5 mph 82 % 0.01 in
09:16 67.5 °F 61.5 °F 30.21 in North 2.3 mph 4.6 mph 81 % 0.01 in
09:21 67.5 °F 61.5 °F 30.21 in NNE 1.0 mph 4.6 mph 81 % 0.01 in
09:26 67.5 °F 61.1 °F 30.22 in North 0.7 mph 4.0 mph 80 % 0.01 in
09:31 67.5 °F 61.1 °F 30.22 in NNE 0.7 mph 2.3 mph 80 % 0.01 in
09:36 67.5 °F 61.5 °F 30.22 in NE 0.4 mph 2.3 mph 81 % 0.01 in
09:41 67.5 °F 61.5 °F 30.22 in North 2.8 mph 4.6 mph 81 % 0.00 in
09:46 67.7 °F 61.7 °F 30.22 in North 1.3 mph 3.5 mph 81 % 0.00 in
09:51 67.9 °F 61.9 °F 30.21 in ENE 1.8 mph 4.6 mph 81 % 0.00 in
09:56 68.2 °F 61.8 °F 30.21 in North 1.4 mph 3.5 mph 80 % 0.00 in
10:01 68.5 °F 61.7 °F 30.21 in NNE 1.5 mph 4.6 mph 79 % 0.00 in
10:06 69.1 °F 60.5 °F 30.21 in North 2.2 mph 3.5 mph 74 % 0.00 in
10:11 69.8 °F 60.0 °F 30.21 in North 0.4 mph 2.3 mph 71 % 0.00 in
10:16 70.6 °F 59.9 °F 30.21 in North 2.6 mph 3.5 mph 69 % 0.00 in
10:21 71.6 °F 60.5 °F 30.20 in Calm   1.2 mph 68 % 0.00 in
10:26 72.5 °F 60.9 °F 30.20 in NNE 1.5 mph 3.5 mph 67 % 0.00 in
10:31 73.2 °F 59.8 °F 30.21 in NNE 2.8 mph 3.5 mph 63 % 0.00 in
10:36 74.0 °F 60.6 °F 30.20 in NE 1.0 mph 3.5 mph 63 % 0.00 in
10:41 74.9 °F 61.9 °F 30.20 in Calm   2.3 mph 64 % 0.00 in
10:46 75.9 °F 61.9 °F 30.20 in North 2.7 mph 4.0 mph 62 % 0.00 in
10:51 76.5 °F 63.0 °F 30.20 in NNE 0.1 mph 2.3 mph 63 % 0.00 in
10:56 77.4 °F 63.4 °F 30.20 in NNW 0.1 mph 1.2 mph 62 % 0.00 in
11:01 77.9 °F 60.4 °F 30.20 in North 0.4 mph 3.5 mph 55 % 0.00 in
11:07 78.2 °F 60.7 °F 30.20 in NE 0.5 mph 4.6 mph 55 % 0.00 in
11:12 78.7 °F 61.7 °F 30.19 in Calm   1.2 mph 56 % 0.00 in
11:17 78.9 °F 62.4 °F 30.19 in NE 1.0 mph 2.3 mph 57 % 0.00 in
11:22 79.2 °F 61.1 °F 30.19 in North 1.4 mph 3.5 mph 54 % 0.00 in
11:27 79.6 °F 63.0 °F 30.19 in NE 2.4 mph 3.5 mph 57 % 0.00 in
11:32 79.7 °F 61.1 °F 30.19 in NNE 2.6 mph 3.5 mph 53 % 0.00 in
11:34 79.7 °F 61.1 °F 30.19 in ENE 2.4 mph 4.6 mph 53 % 0.00 in
11:39 79.6 °F 61.5 °F 30.20 in ENE 0.8 mph 2.3 mph 54 % 0.00 in
11:44 79.7 °F 61.1 °F 30.19 in NE 3.0 mph 5.8 mph 53 % 0.00 in
11:49 79.9 °F 61.2 °F 30.20 in NNE 2.0 mph 3.5 mph 53 % 0.00 in
11:50 79.9 °F 62.3 °F 30.20 in NNE 1.0 mph 3.5 mph 55 % 0.00 in
11:55 79.7 °F 60.5 °F 30.20 in NNE 3.1 mph 6.9 mph 52 % 0.00 in
12:00 79.8 °F 61.7 °F 30.19 in ENE 1.3 mph 3.5 mph 54 % 0.00 in
12:05 79.8 °F 61.7 °F 30.19 in North 1.6 mph 3.5 mph 54 % 0.00 in
12:10 79.4 °F 60.8 °F 30.19 in NE 1.4 mph 3.5 mph 53 % 0.00 in
12:15 79.4 °F 60.8 °F 30.18 in NE 0.9 mph 3.5 mph 53 % 0.00 in
12:20 79.6 °F 61.5 °F 30.18 in NE 1.2 mph 2.3 mph 54 % 0.00 in
12:25 79.9 °F 60.7 °F 30.19 in ENE 3.0 mph 5.8 mph 52 % 0.00 in
12:30 79.8 °F 61.1 °F 30.18 in NNW 5.0 mph 6.9 mph 53 % 0.00 in
12:35 79.9 °F 61.2 °F 30.18 in NNE 2.3 mph 3.5 mph 53 % 0.00 in
12:40 80.1 °F 63.5 °F 30.18 in NE 2.9 mph 5.8 mph 57 % 0.00 in
12:45 80.1 °F 62.0 °F 30.18 in NNE 0.7 mph 3.5 mph 54 % 0.00 in
12:50 80.2 °F 62.0 °F 30.18 in North 3.4 mph 5.0 mph 54 % 0.00 in
12:55 79.8 °F 61.7 °F 30.18 in NE 2.3 mph 4.6 mph 54 % 0.00 in
13:01 79.9 °F 61.8 °F 30.18 in North 3.0 mph 7.0 mph 54 % 0.00 in
13:06 79.9 °F 60.7 °F 30.18 in NE 2.6 mph 5.8 mph 52 % 0.00 in
13:11 79.7 °F 63.1 °F 30.18 in NE 2.0 mph 4.6 mph 57 % 0.00 in
13:16 79.8 °F 60.6 °F 30.17 in North 5.2 mph 6.9 mph 52 % 0.00 in
13:21 79.9 °F 61.8 °F 30.17 in ENE 1.6 mph 6.9 mph 54 % 0.00 in
13:26 80.1 °F 62.5 °F 30.17 in NNE 2.9 mph 6.9 mph 55 % 0.00 in
13:31 80.3 °F 61.6 °F 30.17 in ENE 2.5 mph 4.6 mph 53 % 0.00 in
13:36 80.2 °F 62.0 °F 30.17 in NNE 3.9 mph 6.9 mph 54 % 0.00 in
13:41 80.3 °F 62.1 °F 30.17 in NNE 2.9 mph 4.6 mph 54 % 0.00 in
13:46 80.4 °F 61.2 °F 30.17 in ENE 1.1 mph 3.5 mph 52 % 0.00 in
13:51 80.5 °F 63.4 °F 30.17 in ENE 2.1 mph 3.5 mph 56 % 0.00 in
13:56 80.6 °F 62.9 °F 30.16 in NE 5.3 mph 6.9 mph 55 % 0.00 in
14:01 80.7 °F 62.5 °F 30.16 in ENE 2.0 mph 3.5 mph 54 % 0.00 in
14:06 80.7 °F 63.0 °F 30.16 in NNE 1.7 mph 4.6 mph 55 % 0.00 in
14:11 80.8 °F 61.0 °F 30.16 in NE 3.2 mph 3.5 mph 51 % 0.00 in
14:16 80.8 °F 61.0 °F 30.16 in NE 1.0 mph 3.5 mph 51 % 0.00 in
14:22 80.7 °F 62.5 °F 30.16 in NNE 1.7 mph 3.5 mph 54 % 0.00 in
14:27 80.6 °F 62.4 °F 30.16 in North 2.8 mph 6.9 mph 54 % 0.00 in
14:32 80.4 °F 62.2 °F 30.15 in NE 0.3 mph 1.2 mph 54 % 0.00 in
14:37 80.3 °F 63.2 °F 30.15 in NE 1.9 mph 3.5 mph 56 % 0.00 in
14:41 79.9 °F 60.7 °F 30.15 in NE 2.9 mph 3.5 mph 52 % 0.00 in
14:46 79.7 °F 62.1 °F 30.15 in East 0.8 mph 3.5 mph 55 % 0.00 in
14:51 79.5 °F 60.9 °F 30.14 in ENE 1.1 mph 4.6 mph 53 % 0.00 in
14:56 79.4 °F 60.8 °F 30.15 in ENE 1.1 mph 3.5 mph 53 % 0.00 in
15:01 79.3 °F 62.2 °F 30.14 in North 1.5 mph 4.6 mph 56 % 0.00 in
15:06 79.5 °F 61.9 °F 30.14 in NNE 1.9 mph 3.5 mph 55 % 0.00 in
15:12 79.5 °F 60.9 °F 30.14 in NNE 1.4 mph 3.5 mph 53 % 0.00 in
15:17 79.5 °F 61.9 °F 30.14 in NNE 0.6 mph 3.5 mph 55 % 0.00 in
15:22 79.3 °F 60.7 °F 30.14 in ENE 0.9 mph 3.5 mph 53 % 0.00 in
15:27 79.3 °F 61.2 °F 30.14 in ENE 2.5 mph 4.0 mph 54 % 0.00 in
15:32 79.1 °F 62.1 °F 30.14 in North 2.9 mph 3.5 mph 56 % 0.00 in
15:37 79.4 °F 62.8 °F 30.14 in NNE 1.8 mph 3.0 mph 57 % 0.00 in
15:42 79.4 °F 61.3 °F 30.14 in NE 1.8 mph 3.5 mph 54 % 0.00 in
15:47 79.2 °F 60.6 °F 30.14 in East 2.6 mph 4.6 mph 53 % 0.00 in
15:52 79.1 °F 62.1 °F 30.13 in NNE 2.1 mph 3.5 mph 56 % 0.00 in
15:57 79.1 °F 61.0 °F 30.13 in NE 1.2 mph 3.5 mph 54 % 0.00 in
16:02 79.1 °F 62.6 °F 30.13 in ENE 1.0 mph 2.3 mph 57 % 0.00 in
16:07 78.8 °F 61.3 °F 30.13 in ENE 0.7 mph 3.5 mph 55 % 0.00 in
16:12 78.8 °F 62.8 °F 30.12 in Calm   1.2 mph 58 % 0.00 in
16:17 78.9 °F 62.9 °F 30.13 in NE 0.5 mph 2.0 mph 58 % 0.00 in
16:22 78.9 °F 62.9 °F 30.12 in NE 0.7 mph 2.3 mph 58 % 0.00 in
16:27 79.0 °F 63.0 °F 30.12 in NE 1.2 mph 2.3 mph 58 % 0.00 in
16:32 78.8 °F 63.3 °F 30.12 in Calm   2.0 mph 59 % 0.00 in
16:37 78.7 °F 63.2 °F 30.12 in Calm   1.2 mph 59 % 0.00 in
16:42 78.5 °F 62.0 °F 30.12 in NNE 2.8 mph 3.5 mph 57 % 0.00 in
16:47 78.0 °F 62.5 °F 30.13 in NE 0.2 mph 1.2 mph 59 % 0.00 in
16:52 77.5 °F 62.0 °F 30.12 in NE 0.1 mph 1.2 mph 59 % 0.00 in
16:57 77.1 °F 62.6 °F 30.12 in ENE 0.7 mph 2.3 mph 61 % 0.00 in
17:02 76.8 °F 62.8 °F 30.12 in NE 0.5 mph 4.6 mph 62 % 0.00 in
17:07 76.6 °F 62.1 °F 30.12 in NE 2.7 mph 3.5 mph 61 % 0.00 in
17:12 76.5 °F 62.0 °F 30.12 in Calm   1.2 mph 61 % 0.00 in
17:17 76.2 °F 62.2 °F 30.12 in NNE 0.9 mph 2.3 mph 62 % 0.00 in
17:22 76.0 °F 62.9 °F 30.12 in NNE 0.5 mph 2.3 mph 64 % 0.00 in
17:28 75.9 °F 63.3 °F 30.11 in Calm   1.2 mph 65 % 0.00 in
17:33 75.8 °F 64.1 °F 30.12 in Calm     67 % 0.00 in
17:38 75.7 °F 62.2 °F 30.12 in SE 1.3 mph 3.5 mph 63 % 0.00 in
17:43 75.7 °F 61.3 °F 30.11 in SE 1.2 mph 4.6 mph 61 % 0.00 in
17:48 75.6 °F 60.7 °F 30.11 in Calm   3.5 mph 60 % 0.00 in
17:53 75.5 °F 61.1 °F 30.12 in WSW 2.0 mph 6.9 mph 61 % 0.00 in
17:58 75.5 °F 62.0 °F 30.12 in WSW 0.1 mph 1.2 mph 63 % 0.00 in
18:03 75.5 °F 61.6 °F 30.12 in West 1.2 mph 3.5 mph 62 % 0.00 in
18:08 75.4 °F 61.5 °F 30.12 in West 0.4 mph 2.3 mph 62 % 0.00 in
18:13 75.3 °F 60.5 °F 30.12 in Calm   1.0 mph 60 % 0.00 in
18:18 75.2 °F 60.4 °F 30.11 in West 0.3 mph 1.2 mph 60 % 0.00 in
18:23 75.1 °F 60.7 °F 30.11 in SE 1.3 mph 4.0 mph 61 % 0.00 in
18:28 74.9 °F 59.1 °F 30.11 in SE 2.0 mph 9.2 mph 58 % 0.00 in
18:33 74.6 °F 58.8 °F 30.11 in SE 4.6 mph 7.0 mph 58 % 0.00 in
18:38 74.0 °F 58.3 °F 30.11 in SE 5.8 mph 9.2 mph 58 % 0.00 in
18:43 73.7 °F 59.4 °F 30.11 in SE 1.8 mph 4.6 mph 61 % 0.00 in
18:48 73.4 °F 59.1 °F 30.11 in SSE 2.7 mph 6.9 mph 61 % 0.00 in
18:53 73.1 °F 58.8 °F 30.11 in SE 3.4 mph 4.6 mph 61 % 0.00 in
18:58 72.7 °F 58.5 °F 30.10 in SE 0.7 mph 3.5 mph 61 % 0.00 in
19:03 72.4 °F 58.2 °F 30.10 in SSE 3.3 mph 6.9 mph 61 % 0.00 in
19:08 72.1 °F 58.8 °F 30.10 in SE 2.3 mph 4.6 mph 63 % 0.00 in
19:13 71.9 °F 59.1 °F 30.10 in SSE 1.2 mph 3.0 mph 64 % 0.00 in
19:18 71.7 °F 58.9 °F 30.10 in SE 1.0 mph 2.0 mph 64 % 0.00 in
19:23 71.5 °F 58.7 °F 30.10 in Calm   1.2 mph 64 % 0.00 in
19:28 71.3 °F 58.9 °F 30.10 in SE 0.1 mph 2.3 mph 65 % 0.00 in
19:33 71.2 °F 58.8 °F 30.10 in SE 0.3 mph 1.2 mph 65 % 0.00 in
19:38 71.1 °F 58.7 °F 30.10 in SE 0.2 mph 1.0 mph 65 % 0.00 in
19:43 71.0 °F 59.1 °F 30.10 in SSE 0.3 mph 1.2 mph 66 % 0.00 in
19:46 70.9 °F 59.0 °F 30.10 in SE 0.2 mph 4.6 mph 66 % 0.00 in
19:51 70.8 °F 58.9 °F 30.10 in Calm     66 % 0.00 in
19:56 70.7 °F 59.2 °F 30.11 in Calm     67 % 0.00 in
20:01 70.6 °F 59.1 °F 30.10 in SSE 0.2 mph 3.5 mph 67 % 0.00 in
20:06 70.4 °F 58.9 °F 30.10 in Calm   1.2 mph 67 % 0.00 in
20:11 70.3 °F 58.8 °F 30.11 in Calm   1.2 mph 67 % 0.00 in
20:16 70.2 °F 59.1 °F 30.11 in SSE 0.2 mph 1.2 mph 68 % 0.00 in
20:21 70.0 °F 59.0 °F 30.11 in SSE 0.1 mph 1.2 mph 68 % 0.00 in
20:26 69.9 °F 58.9 °F 30.10 in Calm     68 % 0.00 in
20:31 69.7 °F 59.1 °F 30.10 in Calm     69 % 0.00 in
20:36 69.5 °F 59.3 °F 30.10 in Calm     70 % 0.00 in
20:41 69.3 °F 59.1 °F 30.10 in Calm     70 % 0.00 in
20:46 69.1 °F 58.9 °F 30.10 in Calm     70 % 0.00 in
20:51 68.8 °F 59.0 °F 30.10 in Calm     71 % 0.00 in
20:56 68.6 °F 59.2 °F 30.11 in Calm     72 % 0.00 in
21:01 68.5 °F 59.1 °F 30.10 in Calm     72 % 0.00 in
21:06 68.2 °F 59.2 °F 30.10 in Calm     73 % 0.00 in
21:12 68.0 °F 59.4 °F 30.10 in Calm     74 % 0.00 in
21:17 67.7 °F 59.1 °F 30.09 in Calm   3.5 mph 74 % 0.00 in
21:22 67.5 °F 58.9 °F 30.09 in Calm   1.2 mph 74 % 0.00 in
21:27 67.4 °F 59.2 °F 30.10 in Calm     75 % 0.00 in
21:32 67.3 °F 59.1 °F 30.10 in Calm   1.2 mph 75 % 0.00 in
21:37 67.1 °F 58.9 °F 30.10 in Calm     75 % 0.00 in
21:42 66.9 °F 59.1 °F 30.10 in Calm   1.2 mph 76 % 0.00 in
21:47 66.8 °F 59.0 °F 30.10 in Calm     76 % 0.00 in
21:52 66.7 °F 59.3 °F 30.10 in Calm   1.0 mph 77 % 0.00 in
21:56 66.7 °F 59.3 °F 30.10 in Calm   3.5 mph 77 % 0.00 in
22:01 66.6 °F 59.2 °F 30.10 in SSE 0.1 mph   77 % 0.00 in
22:06 66.5 °F 59.1 °F 30.10 in Calm   1.2 mph 77 % 0.00 in
22:11 66.4 °F 59.0 °F 30.10 in Calm   1.0 mph 77 % 0.00 in
22:16 66.3 °F 59.2 °F 30.10 in Calm     78 % 0.00 in
22:21 66.3 °F 59.2 °F 30.10 in Calm   1.2 mph 78 % 0.00 in
22:27 66.2 °F 59.5 °F 30.09 in SSE 0.1 mph 1.2 mph 79 % 0.00 in
22:32 66.1 °F 59.4 °F 30.09 in Calm   3.5 mph 79 % 0.00 in
22:37 66.0 °F 59.3 °F 30.09 in Calm     79 % 0.00 in
22:42 66.0 °F 59.3 °F 30.09 in Calm   1.2 mph 79 % 0.00 in
22:47 65.9 °F 59.2 °F 30.09 in Calm     79 % 0.00 in
22:52 65.8 °F 59.1 °F 30.09 in Calm     79 % 0.00 in
22:57 65.8 °F 59.5 °F 30.09 in Calm     80 % 0.00 in
23:02 65.7 °F 59.4 °F 30.09 in Calm     80 % 0.00 in
23:07 65.6 °F 59.3 °F 30.09 in Calm   1.2 mph 80 % 0.00 in
23:12 65.5 °F 59.2 °F 30.09 in SSE 0.2 mph 1.2 mph 80 % 0.00 in
23:17 65.4 °F 59.1 °F 30.09 in Calm     80 % 0.00 in
23:22 65.2 °F 58.9 °F 30.09 in SSE 0.1 mph 1.2 mph 80 % 0.00 in
23:27 65.1 °F 58.8 °F 30.09 in Calm     80 % 0.00 in
23:32 65.0 °F 59.0 °F 30.09 in SSE 0.1 mph 1.2 mph 81 % 0.00 in
23:37 64.9 °F 58.9 °F 30.09 in Calm     81 % 0.00 in
23:42 64.7 °F 58.7 °F 30.09 in Calm     81 % 0.00 in
23:48 64.6 °F 58.6 °F 30.09 in Calm   1.2 mph 81 % 0.00 in
23:53 64.4 °F 58.4 °F 30.09 in Calm     81 % 0.00 in
Crab Meadow Weather
Compliments of Weather Underground - 3 mb

Script developed by  Jim McMurry - jmcmurry@mwt.net Adapted for the template by  Wim van der Kuil - Leuven-Template.eu

Weather Terms: Degree Day - Gauges the amount of heating or cooling needed for a building using 65 degrees as a baseline. To compute degree days, the average temperature for a day is taken and referenced to 65. An average temperature of 50 yields 15 heating degree days, while an average temperature of 75 would yield 10 cooling degree days.